Time;durP1;ratioP1;P1;durP2;ratioP2;P2;SDS_P1;SDS_P2;PMS_P1;PMS_P2;Temp;Humidity;BMP_temperature;BMP_pressure;BME280_temperature;BME280_humidity;BME280_pressure;Samples;Min_cycle;Max_cycle;Signal;HPM_P1;HPM_P2
2021/01/27 00:03:50;;;;;;;8.17;4.90;;;;;;;5.21;57.41;98126.03;8300902;28;20212;-76
2021/01/27 00:07:52;;;;;;;7.53;5.10;;;;;;;5.04;57.88;98125.53;8300570;28;20241;-76
2021/01/27 00:11:55;;;;;;;6.20;4.93;;;;;;;4.98;57.96;98123.09;8300441;28;20233;-76
2021/01/27 00:15:56;;;;;;;6.90;4.97;;;;;;;4.84;58.04;98125.94;8300814;28;20201;-76
2021/01/27 00:19:58;;;;;;;6.53;5.40;;;;;;;4.76;58.63;98125.22;8300772;28;20209;-76
2021/01/27 00:24:03;;;;;;;9.33;5.77;;;;;;;4.70;58.83;98109.06;8302689;28;20205;-76
2021/01/27 00:28:10;;;;;;;8.20;5.53;;;;;;;4.56;59.16;98116.16;8300863;28;20208;-76
2021/01/27 00:32:15;;;;;;;9.80;5.67;;;;;;;4.58;59.57;98106.72;8301137;28;20201;-76
2021/01/27 00:36:17;;;;;;;9.10;6.40;;;;;;;4.53;59.63;98100.81;8300757;28;20208;-76
2021/01/27 00:40:20;;;;;;;7.57;5.50;;;;;;;4.53;59.68;98105.94;8300323;28;20207;-75
2021/01/27 00:44:23;;;;;;;11.00;5.80;;;;;;;4.41;60.03;98104.44;8301232;28;20565;-76
2021/01/27 00:48:24;;;;;;;7.77;6.40;;;;;;;4.38;60.22;98101.09;8300581;28;20259;-75
2021/01/27 00:52:26;;;;;;;10.47;7.30;;;;;;;4.28;60.51;98095.28;8300054;28;20228;-76
2021/01/27 00:56:28;;;;;;;8.30;6.40;;;;;;;4.38;61.01;98089.13;8301736;28;20213;-76
2021/01/27 01:00:32;;;;;;;8.07;6.73;;;;;;;4.37;60.92;98089.16;8302281;28;20205;-76
2021/01/27 01:04:34;;;;;;;9.03;6.50;;;;;;;4.38;61.21;98080.56;8306197;28;20592;-76
2021/01/27 01:08:36;;;;;;;8.67;6.53;;;;;;;4.29;61.33;98059.38;8306313;28;20702;-76
2021/01/27 01:12:39;;;;;;;8.20;7.03;;;;;;;4.32;61.18;98066.16;8306972;28;20221;-76
2021/01/27 01:16:42;;;;;;;7.03;6.27;;;;;;;4.23;61.57;98058.66;8307325;28;20232;-76
2021/01/27 01:20:45;;;;;;;8.00;6.83;;;;;;;4.16;61.40;98059.63;8305913;28;20248;-77
2021/01/27 01:24:47;;;;;;;7.67;6.87;;;;;;;4.10;61.56;98056.28;8306419;28;20216;-76
2021/01/27 01:28:49;;;;;;;9.47;7.13;;;;;;;4.17;61.28;98058.72;8307084;28;20201;-76
2021/01/27 01:32:52;;;;;;;7.90;7.10;;;;;;;4.11;61.98;98057.97;8305686;28;20239;-76
2021/01/27 01:36:54;;;;;;;8.00;7.20;;;;;;;4.19;62.27;98056.97;8305626;28;20205;-76
2021/01/27 01:41:00;;;;;;;11.63;7.27;;;;;;;4.21;61.86;98060.38;8305569;28;20209;-76
2021/01/27 01:45:04;;;;;;;11.20;7.40;;;;;;;4.23;61.60;98056.91;8305298;28;20209;-75
2021/01/27 01:49:11;;;;;;;9.53;7.47;;;;;;;4.13;61.64;98057.09;8304904;28;20213;-75
2021/01/27 01:53:13;;;;;;;10.23;7.23;;;;;;;4.26;61.51;98051.72;8303273;28;20206;-75
2021/01/27 01:57:18;;;;;;;9.80;7.40;;;;;;;4.30;61.75;98063.63;8305231;28;20197;-75
2021/01/27 02:01:23;;;;;;;8.93;7.40;;;;;;;4.32;61.41;98061.00;8305474;28;20255;-75
2021/01/27 02:05:26;;;;;;;10.97;7.17;;;;;;;4.30;61.57;98042.25;8306019;28;20223;-75
2021/01/27 02:09:28;;;;;;;10.93;7.87;;;;;;;4.51;61.26;98041.00;8305661;28;20233;-77
2021/01/27 02:13:54;;;;;;;10.83;7.20;;;;;;;4.47;60.90;98060.78;8303504;28;20224;-76
2021/01/27 02:18:00;;;;;;;9.30;7.90;;;;;;;4.49;60.88;98059.03;8281730;28;20807;-76
2021/01/27 02:22:30;;;;;;;8.50;7.20;;;;;;;4.43;61.11;98045.44;8303737;28;20197;-76
2021/01/27 02:26:55;;;;;;;9.90;7.83;;;;;;;4.48;60.71;98041.09;8304415;28;20205;-76
2021/01/27 02:31:07;;;;;;;9.70;7.20;;;;;;;4.39;60.31;98043.81;8304609;28;20234;-77
2021/01/27 02:35:13;;;;;;;8.40;7.60;;;;;;;4.21;60.34;98037.31;8304639;28;20236;-77
2021/01/27 02:39:19;;;;;;;8.90;7.03;;;;;;;4.22;59.87;98034.69;8303681;28;20212;-77
2021/01/27 02:43:30;;;;;;;8.53;7.17;;;;;;;4.28;59.53;98031.19;8303395;28;20208;-77
2021/01/27 02:47:40;;;;;;;10.20;7.10;;;;;;;4.25;59.76;98031.25;8303778;28;20259;-77
2021/01/27 02:51:46;;;;;;;10.90;7.50;;;;;;;4.21;59.38;98035.59;8302845;28;20284;-78
2021/01/27 02:55:53;;;;;;;10.53;7.10;;;;;;;4.11;59.17;98029.78;8304081;28;20562;-77
2021/01/27 03:00:00;;;;;;;8.40;6.67;;;;;;;4.16;59.08;98028.84;8302905;28;20542;-77
2021/01/27 03:04:06;;;;;;;7.43;6.40;;;;;;;4.09;58.89;98023.84;8302598;28;20205;-78
2021/01/27 03:08:12;;;;;;;8.90;6.47;;;;;;;4.02;58.92;98026.53;8302775;28;20589;-78
2021/01/27 03:12:14;;;;;;;9.13;6.60;;;;;;;3.96;58.78;98013.81;8302633;28;20196;-77
2021/01/27 03:16:19;;;;;;;6.60;5.97;;;;;;;4.00;58.46;98011.19;8302054;28;20254;-77
2021/01/27 03:20:24;;;;;;;9.23;5.80;;;;;;;4.02;58.29;98004.31;8301591;28;20221;-77
2021/01/27 03:24:29;;;;;;;9.07;5.93;;;;;;;3.88;58.00;98002.00;8302828;28;20584;-77
2021/01/27 03:28:34;;;;;;;8.53;6.30;;;;;;;3.89;58.11;98003.66;8302513;28;20189;-78
2021/01/27 03:32:41;;;;;;;8.43;6.30;;;;;;;3.86;57.96;98002.88;8302001;28;20653;-78
2021/01/27 03:36:46;;;;;;;9.70;6.50;;;;;;;3.87;57.85;98002.00;8301469;28;20251;-77
2021/01/27 03:40:52;;;;;;;7.87;6.00;;;;;;;3.56;57.88;98002.53;8301527;28;20212;-77
2021/01/27 03:44:56;;;;;;;7.40;5.90;;;;;;;3.63;57.82;98004.09;8301437;28;20205;-77
2021/01/27 03:49:02;;;;;;;8.13;6.27;;;;;;;3.64;57.70;98007.53;8300386;28;20212;-77
2021/01/27 03:53:06;;;;;;;8.27;6.23;;;;;;;3.61;57.33;98017.78;8300699;28;20228;-77
2021/01/27 03:57:12;;;;;;;10.30;6.47;;;;;;;3.65;57.56;98010.03;8302744;28;20328;-78
2021/01/27 04:01:16;;;;;;;8.57;6.03;;;;;;;3.55;57.65;98015.34;8297193;28;20209;-78
2021/01/27 04:05:18;;;;;;;10.13;6.40;;;;;;;3.60;57.48;98013.53;8267508;28;20690;-78
2021/01/27 04:09:20;;;;;;;10.10;6.10;;;;;;;3.47;57.77;98011.19;8268272;28;20233;-78
2021/01/27 04:13:23;;;;;;;7.03;5.50;;;;;;;3.51;57.10;98011.97;8270064;28;20640;-78
2021/01/27 04:17:29;;;;;;;8.47;5.60;;;;;;;3.46;57.36;98006.06;8271517;28;20216;-78
2021/01/27 04:21:31;;;;;;;9.27;5.80;;;;;;;3.49;57.20;98004.31;8269137;28;20213;-78
2021/01/27 04:25:33;;;;;;;9.17;6.40;;;;;;;3.50;57.25;98007.72;8268429;28;20209;-78
2021/01/27 04:29:36;;;;;;;7.07;6.37;;;;;;;3.53;57.26;98000.00;8268645;28;20209;-78
2021/01/27 04:33:38;;;;;;;8.53;5.17;;;;;;;3.55;57.59;97988.00;8267752;28;20268;-78
2021/01/27 04:37:46;;;;;;;7.20;5.63;;;;;;;3.51;57.08;97984.66;8273968;28;20670;-77
2021/01/27 04:41:48;;;;;;;7.13;5.70;;;;;;;3.50;57.04;97975.28;8274088;28;20220;-78
2021/01/27 04:45:57;;;;;;;8.17;7.20;;;;;;;3.48;57.38;97963.38;8275576;28;20649;-78
2021/01/27 04:50:03;;;;;;;7.53;6.53;;;;;;;3.32;57.18;97947.41;8274632;28;20654;-77
2021/01/27 04:54:28;;;;;;;7.80;6.40;;;;;;;3.35;57.28;97946.50;8275039;28;20249;-77
2021/01/27 04:58:37;;;;;;;7.83;5.90;;;;;;;3.41;57.06;97939.59;8274490;28;20592;-78
2021/01/27 05:02:52;;;;;;;7.77;5.97;;;;;;;3.42;56.46;97922.50;8291261;28;20224;-78
2021/01/27 05:06:59;;;;;;;9.97;6.67;;;;;;;3.35;56.60;97923.47;8306773;28;20260;-78
2021/01/27 05:11:19;;;;;;;9.20;6.90;;;;;;;3.26;56.46;97917.63;8306297;28;20201;-78
2021/01/27 05:15:22;;;;;;;12.47;7.73;;;;;;;3.18;57.26;97911.81;8306300;28;20224;-78
2021/01/27 05:19:26;;;;;;;8.63;7.23;;;;;;;3.21;56.91;97906.63;8305671;28;20228;-78
2021/01/27 05:23:28;;;;;;;9.53;7.50;;;;;;;3.16;56.91;97902.44;8305955;28;20205;-78
2021/01/27 05:27:32;;;;;;;13.20;8.20;;;;;;;3.06;57.40;97901.72;8305550;28;20201;-77
2021/01/27 05:31:59;;;;;;;10.93;7.47;;;;;;;2.98;57.28;97906.13;8304892;28;20216;-77
2021/01/27 05:36:08;;;;;;;11.10;7.97;;;;;;;3.15;56.90;97909.28;8305315;28;20347;-77
2021/01/27 05:40:16;;;;;;;14.40;10.57;;;;;;;2.86;57.21;97908.00;8304867;28;20205;-76
2021/01/27 05:44:26;;;;;;;11.37;8.57;;;;;;;3.00;56.91;97894.16;8305386;28;20215;-77
2021/01/27 05:48:30;;;;;;;11.40;7.83;;;;;;;3.03;56.87;97894.97;8304782;28;20205;-77
2021/01/27 05:52:32;;;;;;;13.93;8.13;;;;;;;2.98;56.68;97895.91;8306241;28;20205;-78
2021/01/27 05:56:35;;;;;;;11.07;9.60;;;;;;;2.87;57.33;97902.00;8305960;28;20248;-78
2021/01/27 06:00:37;;;;;;;12.90;8.50;;;;;;;2.64;57.95;97896.38;8305446;28;20215;-78
2021/01/27 06:04:42;;;;;;;11.93;9.20;;;;;;;2.46;57.39;97900.03;8273138;28;20233;-78
2021/01/27 06:08:52;;;;;;;9.03;8.00;;;;;;;2.60;57.52;97897.28;8272546;28;20238;-78
2021/01/27 06:12:54;;;;;;;9.93;8.50;;;;;;;2.62;57.89;97898.94;8280891;28;20260;-78
2021/01/27 06:16:55;;;;;;;11.60;9.53;;;;;;;2.59;57.36;97887.91;8291599;28;20232;-78
2021/01/27 06:21:24;;;;;;;13.33;10.73;;;;;;;2.75;57.50;97891.97;8272612;28;20204;-77
2021/01/27 06:25:32;;;;;;;10.33;8.43;;;;;;;2.84;57.44;97903.78;8275259;28;20217;-77
2021/01/27 06:29:56;;;;;;;10.10;8.50;;;;;;;2.71;57.03;97893.72;8295552;28;20213;-76
2021/01/27 06:34:43;;;;;;;12.03;9.30;;;;;;;2.41;58.32;97886.47;8301685;28;20217;-77
2021/01/27 06:39:03;;;;;;;13.77;9.60;;;;;;;2.41;58.00;97897.53;8280129;28;20201;-77
2021/01/27 06:43:35;;;;;;;10.90;9.77;;;;;;;2.44;57.55;97891.53;8304223;28;20575;-77
2021/01/27 06:48:02;;;;;;;13.20;9.70;;;;;;;2.33;57.60;97884.84;8303695;28;20193;-78
2021/01/27 06:52:22;;;;;;;15.83;12.07;;;;;;;2.29;57.96;97888.31;8294433;28;20194;-79
2021/01/27 06:56:37;;;;;;;13.70;11.77;;;;;;;2.03;58.64;97883.50;8313666;28;20329;-79
2021/01/27 07:00:54;;;;;;;15.43;13.13;;;;;;;1.81;59.39;97888.00;8274659;28;20201;-78
2021/01/27 07:05:16;;;;;;;14.80;12.50;;;;;;;2.18;59.15;97890.16;8272306;28;20226;-78
2021/01/27 07:09:48;;;;;;;16.87;13.47;;;;;;;2.34;58.72;97889.09;8303227;28;20637;-78
2021/01/27 07:14:34;;;;;;;17.10;13.73;;;;;;;2.46;57.94;97897.47;8303906;28;20255;-77
2021/01/27 07:19:05;;;;;;;20.17;14.27;;;;;;;2.24;58.76;97873.91;8303359;28;20232;-78
2021/01/27 07:23:13;;;;;;;24.80;18.27;;;;;;;2.22;58.78;97884.13;8271389;28;20233;-78
2021/01/27 07:27:19;;;;;;;23.23;18.83;;;;;;;2.61;58.15;97897.28;8273182;28;20194;-78
2021/01/27 07:31:25;;;;;;;20.43;15.87;;;;;;;2.71;57.73;97901.38;8272814;28;20190;-77
2021/01/27 07:35:32;;;;;;;18.17;15.03;;;;;;;2.90;57.56;97898.56;8274146;28;20237;-77
2021/01/27 07:39:42;;;;;;;17.53;14.97;;;;;;;2.66;57.53;97889.53;8272879;28;20201;-77
2021/01/27 07:43:49;;;;;;;17.27;13.97;;;;;;;2.49;58.14;97894.88;8272299;28;20561;-77
2021/01/27 07:48:03;;;;;;;15.30;12.43;;;;;;;2.26;58.66;97900.28;8270291;28;20194;-78
2021/01/27 07:52:13;;;;;;;14.67;11.43;;;;;;;2.25;58.63;97899.44;8274229;28;20209;-78
2021/01/27 07:56:18;;;;;;;13.83;10.80;;;;;;;2.41;57.93;97896.69;8279496;28;20305;-79
2021/01/27 08:00:28;;;;;;;11.47;9.90;;;;;;;2.53;57.76;97902.50;8278192;28;20685;-79
2021/01/27 08:04:34;;;;;;;13.00;10.80;;;;;;;2.44;57.93;97906.88;8312146;28;20231;-78
2021/01/27 08:08:45;;;;;;;14.57;11.07;;;;;;;2.78;57.40;97906.41;8304289;28;20225;-78
2021/01/27 08:12:51;;;;;;;45.20;31.77;;;;;;;2.77;57.40;97912.41;8301382;28;20193;-78
2021/01/27 08:16:54;;;;;;;41.70;29.93;;;;;;;3.20;56.58;97912.63;8302109;28;20213;-78
2021/01/27 08:21:26;;;;;;;15.57;11.27;;;;;;;3.02;56.50;97908.59;8304147;28;20944;-78
2021/01/27 08:25:51;;;;;;;14.80;10.43;;;;;;;3.57;55.49;97899.19;8308599;28;20205;-78
2021/01/27 08:30:23;;;;;;;14.00;11.43;;;;;;;3.74;54.42;97909.16;8302816;28;20201;-78
2021/01/27 08:34:42;;;;;;;13.40;10.40;;;;;;;3.68;55.03;97901.59;8291842;28;20228;-77
2021/01/27 08:38:45;;;;;;;14.37;8.40;;;;;;;6.60;87.75;97917.88;8267080;28;20208;-78
2021/01/27 08:42:51;;;;;;;13.47;7.47;;;;;;;8.58;53.93;97899.38;8270848;28;20205;-79
2021/01/27 08:46:55;;;;;;;10.63;7.40;;;;;;;9.06;49.20;97893.22;8310253;28;20189;-80
2021/01/27 08:51:00;;;;;;;9.43;7.00;;;;;;;9.41;46.54;97887.56;8311559;28;20197;-78
2021/01/27 08:55:02;;;;;;;11.43;8.00;;;;;;;9.84;43.92;97896.09;8309879;28;20221;-80
2021/01/27 08:59:29;;;;;;;12.93;9.03;;;;;;;7.62;42.42;97889.81;8306904;28;20613;-78
2021/01/27 09:04:02;;;;;;;11.77;9.30;;;;;;;6.23;47.03;97900.94;8303190;28;20695;-78
2021/01/27 09:08:25;;;;;;;9.90;8.90;;;;;;;5.85;48.43;97889.09;8300849;28;20248;-78
2021/01/27 09:12:27;;;;;;;12.90;10.00;;;;;;;5.46;48.94;97881.53;8299808;28;20204;-78
2021/01/27 09:16:30;;;;;;;11.50;10.40;;;;;;;5.29;49.72;97887.06;8300279;28;20224;-77
2021/01/27 09:20:33;;;;;;;12.53;10.30;;;;;;;5.20;50.89;97890.72;8301401;28;20216;-78
2021/01/27 09:24:40;;;;;;;13.10;9.93;;;;;;;5.15;50.67;97884.84;8306713;28;20216;-78
2021/01/27 09:28:42;;;;;;;9.60;8.60;;;;;;;4.94;51.24;97886.19;8308976;28;20204;-78
2021/01/27 09:32:45;;;;;;;11.83;8.23;;;;;;;5.21;50.53;97879.56;8306097;28;20193;-77
2021/01/27 09:36:47;;;;;;;10.97;8.67;;;;;;;5.63;49.71;97874.22;8304035;28;20256;-78
2021/01/27 09:40:51;;;;;;;11.23;9.13;;;;;;;5.79;49.56;97869.56;8307740;28;20212;-78
2021/01/27 09:45:00;;;;;;;21.37;16.80;;;;;;;5.80;48.43;97866.06;8289260;28;20212;-77
2021/01/27 09:49:06;;;;;;;13.27;10.37;;;;;;;5.75;49.28;97872.22;8305028;28;20676;-78
2021/01/27 09:53:08;;;;;;;11.87;9.47;;;;;;;4.92;50.83;97874.28;8302547;28;20201;-77
2021/01/27 09:57:11;;;;;;;14.43;10.47;;;;;;;4.87;52.02;97866.69;8304388;28;20205;-77
2021/01/27 10:01:17;;;;;;;14.03;10.23;;;;;;;4.73;52.32;97855.91;8304074;28;20547;-77
2021/01/27 10:05:34;;;;;;;12.63;9.70;;;;;;;5.17;50.61;97852.28;8305055;28;20267;-77
2021/01/27 10:09:44;;;;;;;9.97;8.77;;;;;;;4.53;52.11;97854.59;8304220;28;20625;-76
2021/01/27 10:13:49;;;;;;;11.57;9.40;;;;;;;3.89;54.13;97860.19;8304294;28;20209;-77
2021/01/27 10:18:01;;;;;;;10.33;9.13;;;;;;;3.51;54.92;97858.34;8304656;28;20209;-77
2021/01/27 10:22:06;;;;;;;12.50;10.30;;;;;;;3.45;55.26;97858.47;8304670;28;20653;-77
2021/01/27 10:26:35;;;;;;;12.60;10.30;;;;;;;3.62;55.26;97847.91;8303908;28;20286;-77
2021/01/27 10:30:47;;;;;;;12.20;8.80;;;;;;;3.83;54.95;97838.97;8298511;28;20205;-78
2021/01/27 10:34:50;;;;;;;9.73;8.73;;;;;;;4.00;54.31;97847.19;8308854;28;20255;-80
2021/01/27 10:39:10;;;;;;;11.83;9.03;;;;;;;4.42;53.42;97848.91;8302549;28;20707;-79
2021/01/27 10:43:26;;;;;;;12.30;9.88;;;;;;;4.97;51.87;97842.50;8277647;28;20435;-76
2021/01/27 10:47:31;;;;;;;15.70;10.20;;;;;;;5.03;52.47;97832.09;8307338;28;20270;-76
2021/01/27 10:51:33;;;;;;;12.27;10.17;;;;;;;4.86;52.57;97831.66;8302048;28;20252;-76
2021/01/27 10:55:37;;;;;;;12.03;9.93;;;;;;;4.76;52.81;97837.84;8305934;28;20229;-77
2021/01/27 10:59:39;;;;;;;12.67;10.00;;;;;;;4.55;53.29;97831.50;8306272;28;20552;-75
2021/01/27 11:03:40;;;;;;;15.03;11.67;;;;;;;4.41;54.00;97817.25;8308668;28;20200;-76
2021/01/27 11:07:42;;;;;;;10.90;9.80;;;;;;;5.05;52.69;97824.34;8303147;28;20324;-76
2021/01/27 11:11:45;;;;;;;8.83;7.33;;;;;;;5.38;51.87;97814.13;8304418;28;20232;-76
2021/01/27 11:15:47;;;;;;;13.13;9.20;;;;;;;5.34;51.13;97797.94;8303694;28;20216;-76
2021/01/27 11:19:49;;;;;;;11.37;8.23;;;;;;;5.66;50.58;97798.81;8305188;28;20668;-77
2021/01/27 11:23:50;;;;;;;11.47;7.23;;;;;;;5.59;50.02;97794.72;8304500;28;20212;-77
2021/01/27 11:27:53;;;;;;;12.70;8.80;;;;;;;5.65;50.43;97789.41;8303095;28;20201;-76
2021/01/27 11:31:55;;;;;;;10.03;6.87;;;;;;;5.87;50.98;97792.25;8302661;28;20208;-77
2021/01/27 11:35:57;;;;;;;13.53;11.03;;;;;;;5.95;51.06;97777.47;8303073;28;20291;-77
2021/01/27 11:39:59;;;;;;;14.37;11.10;;;;;;;5.59;50.75;97763.91;8302408;28;20208;-77
2021/01/27 11:44:02;;;;;;;11.23;9.00;;;;;;;5.64;51.06;97762.06;8303071;28;20193;-78
2021/01/27 11:48:04;;;;;;;9.07;7.30;;;;;;;5.73;50.27;97753.22;8305506;28;20201;-77
2021/01/27 11:52:08;;;;;;;9.07;6.80;;;;;;;5.75;50.44;97752.31;8301436;28;20237;-77
2021/01/27 11:56:11;;;;;;;10.27;6.80;;;;;;;6.01;50.25;97737.88;8301448;28;20228;-78
2021/01/27 12:00:17;;;;;;;10.20;7.27;;;;;;;5.91;50.45;97739.03;8301926;28;20547;-77
2021/01/27 12:04:19;;;;;;;8.30;6.73;;;;;;;5.80;50.46;97734.19;8301283;28;20189;-77
2021/01/27 12:08:21;;;;;;;9.83;6.63;;;;;;;5.58;49.71;97742.50;8301857;28;20248;-78
2021/01/27 12:12:25;;;;;;;11.27;6.63;;;;;;;5.83;49.71;97739.25;8301554;28;20205;-77
2021/01/27 12:16:27;;;;;;;9.73;6.70;;;;;;;6.18;49.15;97727.09;8302086;28;20699;-77
2021/01/27 12:20:30;;;;;;;6.93;6.23;;;;;;;6.43;49.10;97728.00;8301754;28;20729;-78
2021/01/27 12:24:31;;;;;;;10.00;6.40;;;;;;;6.13;48.88;97713.53;8301799;28;20209;-78
2021/01/27 12:28:33;;;;;;;8.33;6.70;;;;;;;6.39;49.57;97708.41;8304586;28;20194;-77
2021/01/27 12:32:36;;;;;;;7.13;6.30;;;;;;;6.23;48.71;97695.22;8300852;28;20544;-78
2021/01/27 12:36:38;;;;;;;8.77;7.30;;;;;;;6.15;49.12;97699.75;8300855;28;20323;-77
2021/01/27 12:40:39;;;;;;;10.40;5.90;;;;;;;6.17;49.25;97685.13;8301299;28;20209;-78
2021/01/27 12:44:42;;;;;;;10.97;6.80;;;;;;;6.26;49.02;97684.84;8300718;28;20215;-77
2021/01/27 12:48:45;;;;;;;8.73;5.90;;;;;;;6.30;49.29;97670.13;8300566;28;20649;-77
2021/01/27 12:52:48;;;;;;;10.70;6.17;;;;;;;6.37;48.73;97668.22;8300889;28;20212;-77
2021/01/27 12:56:49;;;;;;;7.83;5.70;;;;;;;6.36;49.23;97659.66;8302819;28;20229;-77
2021/01/27 13:00:53;;;;;;;7.43;5.57;;;;;;;6.14;49.40;97644.06;8306866;28;20656;-77
2021/01/27 13:04:56;;;;;;;6.47;5.20;;;;;;;5.76;50.38;97640.09;8307390;28;20636;-78
2021/01/27 13:08:58;;;;;;;8.63;6.70;;;;;;;5.88;50.26;97662.84;8306155;28;20236;-77
2021/01/27 13:12:59;;;;;;;6.97;6.17;;;;;;;5.93;51.52;97658.41;8306795;28;20204;-77
2021/01/27 13:17:02;;;;;;;7.47;5.93;;;;;;;5.97;50.91;97638.63;8307037;28;20668;-77
2021/01/27 13:21:07;;;;;;;9.30;7.30;;;;;;;6.05;51.00;97640.06;8307329;28;20201;-77
2021/01/27 13:25:12;;;;;;;6.63;5.90;;;;;;;5.68;51.39;97640.31;8307357;28;20208;-77
2021/01/27 13:29:31;;;;;;;7.27;5.17;;;;;;;5.88;52.33;97632.84;8305740;28;20645;-78
2021/01/27 13:33:33;;;;;;;6.00;4.80;;;;;;;5.86;54.00;97634.63;8306577;28;20209;-77
2021/01/27 13:37:35;;;;;;;6.03;4.97;;;;;;;6.01;54.59;97619.63;8306654;28;20214;-78
2021/01/27 13:41:37;;;;;;;5.57;5.07;;;;;;;5.95;54.99;97625.81;8307650;28;20212;-77
2021/01/27 13:45:39;;;;;;;6.27;5.27;;;;;;;5.91;55.02;97626.75;8306158;28;20252;-78
2021/01/27 13:49:41;;;;;;;5.40;4.90;;;;;;;5.75;55.66;97616.13;8307419;28;20196;-77
2021/01/27 13:53:43;;;;;;;6.33;5.00;;;;;;;6.12;55.60;97616.75;8307932;28;20224;-78
2021/01/27 13:57:45;;;;;;;4.97;4.43;;;;;;;5.91;56.14;97616.50;8307584;28;20209;-77
2021/01/27 14:01:47;;;;;;;5.37;4.70;;;;;;;5.95;55.77;97612.09;8305705;28;20209;-77
2021/01/27 14:05:49;;;;;;;7.37;5.50;;;;;;;5.38;56.33;97600.97;8306609;28;20257;-77
2021/01/27 14:09:52;;;;;;;9.80;5.13;;;;;;;5.33;56.97;97602.81;8304365;28;20193;-78
2021/01/27 14:13:54;;;;;;;7.60;5.57;;;;;;;5.67;56.53;97587.25;8304862;28;20201;-77
2021/01/27 14:17:56;;;;;;;7.37;5.23;;;;;;;5.58;56.63;97595.22;8305908;28;20208;-77
2021/01/27 14:21:58;;;;;;;6.27;5.30;;;;;;;5.76;56.75;97584.38;8305335;28;20209;-77
2021/01/27 14:26:01;;;;;;;5.10;4.60;;;;;;;5.75;56.44;97585.28;8304610;28;20205;-77
2021/01/27 14:30:03;;;;;;;6.17;5.30;;;;;;;5.67;56.41;97566.69;8304974;28;20573;-77
2021/01/27 14:34:05;;;;;;;6.27;4.90;;;;;;;5.54;57.18;97567.94;8303577;28;20229;-77
2021/01/27 14:38:08;;;;;;;5.80;4.43;;;;;;;5.48;56.58;97567.28;8303383;28;20201;-77
2021/01/27 14:42:11;;;;;;;7.13;5.20;;;;;;;5.09;57.63;97553.88;8303827;28;20256;-77
2021/01/27 14:46:13;;;;;;;7.07;5.50;;;;;;;5.00;57.74;97552.41;8303377;28;20205;-78
2021/01/27 14:50:16;;;;;;;7.10;5.07;;;;;;;5.34;57.39;97556.56;8303739;28;20214;-77
2021/01/27 14:54:19;;;;;;;9.13;6.20;;;;;;;5.21;57.23;97574.03;8302740;28;20229;-77
2021/01/27 14:58:21;;;;;;;10.20;6.30;;;;;;;5.13;58.25;97570.03;8303114;28;20209;-77
2021/01/27 15:02:25;;;;;;;8.53;7.23;;;;;;;5.20;58.13;97567.25;8302643;28;20197;-77
2021/01/27 15:06:27;;;;;;;12.20;7.90;;;;;;;5.09;58.38;97572.69;8303072;28;20229;-77
2021/01/27 15:10:29;;;;;;;9.43;7.60;;;;;;;5.27;58.33;97570.47;8302833;28;20668;-77
2021/01/27 15:14:31;;;;;;;8.27;6.83;;;;;;;5.31;57.40;97564.34;8303384;28;20229;-77
2021/01/27 15:18:33;;;;;;;7.30;6.40;;;;;;;5.35;57.97;97571.09;8303001;28;20201;-77
2021/01/27 15:22:35;;;;;;;7.40;5.27;;;;;;;5.40;57.75;97578.66;8303380;28;20205;-77
2021/01/27 15:26:36;;;;;;;6.40;5.70;;;;;;;5.42;57.63;97584.56;8302444;28;20201;-77
2021/01/27 15:30:39;;;;;;;5.23;4.43;;;;;;;5.27;57.36;97573.88;8303958;28;20216;-78
2021/01/27 15:34:43;;;;;;;8.03;5.93;;;;;;;5.38;57.75;97583.00;8302398;28;20225;-77
2021/01/27 15:38:45;;;;;;;7.30;4.57;;;;;;;5.31;57.86;97579.75;8302675;28;20563;-77
2021/01/27 15:42:47;;;;;;;6.03;4.50;;;;;;;5.25;57.59;97577.38;8302339;28;20205;-77
2021/01/27 15:46:50;;;;;;;4.23;3.63;;;;;;;5.37;57.41;97581.28;8301877;28;20216;-77
2021/01/27 15:50:52;;;;;;;6.03;3.50;;;;;;;5.34;57.13;97584.81;8302124;28;20216;-77
2021/01/27 15:54:54;;;;;;;6.40;3.50;;;;;;;5.24;57.11;97579.09;8301310;28;20236;-77
2021/01/27 15:58:55;;;;;;;4.80;3.43;;;;;;;5.34;57.29;97573.69;8301686;28;20201;-77
2021/01/27 16:02:58;;;;;;;5.40;4.30;;;;;;;5.35;56.99;97586.50;8301695;28;20571;-77
2021/01/27 16:07:00;;;;;;;6.53;5.13;;;;;;;5.34;57.35;97576.25;8301095;28;20233;-77
2021/01/27 16:11:02;;;;;;;7.07;4.37;;;;;;;5.10;57.74;97576.06;8301341;28;20201;-77
2021/01/27 16:15:06;;;;;;;6.37;4.83;;;;;;;5.08;58.59;97582.97;8300867;28;20229;-77
2021/01/27 16:19:10;;;;;;;6.50;4.90;;;;;;;5.22;58.52;97582.59;8300716;28;20594;-77
2021/01/27 16:23:15;;;;;;;5.83;4.57;;;;;;;5.00;59.13;97584.94;8300710;28;20204;-76
2021/01/27 16:27:16;;;;;;;7.93;5.67;;;;;;;4.90;59.30;97581.78;8300480;28;20653;-77
2021/01/27 16:31:18;;;;;;;6.57;5.50;;;;;;;4.97;59.36;97590.13;8299380;28;20205;-77
2021/01/27 16:35:23;;;;;;;6.57;5.83;;;;;;;4.92;59.17;97587.72;8302130;28;20217;-78
2021/01/27 16:39:26;;;;;;;8.80;6.10;;;;;;;4.85;59.74;97581.91;8302903;28;20284;-78
2021/01/27 16:43:28;;;;;;;8.10;7.27;;;;;;;4.79;59.88;97576.09;8301260;28;20197;-78
2021/01/27 16:47:30;;;;;;;7.37;6.10;;;;;;;4.47;60.11;97581.22;8299071;28;20661;-78
2021/01/27 16:51:32;;;;;;;8.43;6.23;;;;;;;4.62;60.21;97574.81;8301716;28;20209;-77
2021/01/27 16:55:34;;;;;;;9.37;6.87;;;;;;;4.59;60.17;97574.94;8301181;28;20228;-76
2021/01/27 16:59:36;;;;;;;7.20;6.47;;;;;;;4.71;60.55;97573.75;8300939;28;20204;-76
2021/01/27 17:03:40;;;;;;;8.30;7.30;;;;;;;4.81;60.20;97575.16;8301362;28;20201;-77
2021/01/27 17:07:47;;;;;;;7.80;6.83;;;;;;;4.48;60.41;97570.06;8292991;28;20233;-77
2021/01/27 17:11:49;;;;;;;11.17;6.83;;;;;;;4.69;60.60;97562.69;8302129;28;20216;-77
2021/01/27 17:15:55;;;;;;;9.57;8.03;;;;;;;4.50;60.56;97550.34;8301900;28;20220;-78
2021/01/27 17:19:57;;;;;;;8.93;7.40;;;;;;;4.74;60.70;97549.72;8302111;28;20254;-80
2021/01/27 17:24:00;;;;;;;8.73;7.53;;;;;;;4.75;60.53;97544.56;8303671;28;20209;-78
2021/01/27 17:28:02;;;;;;;10.37;8.73;;;;;;;4.55;60.99;97542.56;8312662;28;20216;-78
2021/01/27 17:32:04;;;;;;;10.03;8.20;;;;;;;4.47;61.22;97539.34;8300479;28;20205;-79
2021/01/27 17:36:07;;;;;;;11.03;8.40;;;;;;;4.66;60.63;97548.25;8301050;28;20225;-79
2021/01/27 17:40:22;;;;;;;10.07;8.20;;;;;;;4.49;60.40;97540.13;8282983;28;20586;-76
2021/01/27 17:44:24;;;;;;;8.70;7.80;;;;;;;4.52;60.59;97549.47;8305724;28;20205;-76
2021/01/27 17:48:25;;;;;;;9.40;6.93;;;;;;;4.45;60.56;97557.31;8308675;28;20213;-76
2021/01/27 17:52:27;;;;;;;9.20;7.97;;;;;;;4.33;60.63;97554.25;8307271;28;20201;-77
2021/01/27 17:56:30;;;;;;;12.53;9.40;;;;;;;6.12;75.13;97555.88;8306897;28;20266;-80
2021/01/27 18:00:34;;;;;;;8.37;7.10;;;;;;;7.11;60.63;97547.28;8307259;28;20209;-79
2021/01/27 18:04:37;;;;;;;8.77;7.97;;;;;;;5.99;56.61;97539.16;8306458;28;20264;-78
2021/01/27 18:08:39;;;;;;;11.00;9.90;;;;;;;5.64;57.84;97539.38;8306324;28;20237;-78
2021/01/27 18:12:45;;;;;;;9.27;8.27;;;;;;;5.42;57.59;97551.19;8306548;28;20664;-78
2021/01/27 18:16:47;;;;;;;9.37;8.13;;;;;;;5.20;58.49;97554.41;8306895;28;20229;-78
2021/01/27 18:20:49;;;;;;;9.73;8.70;;;;;;;5.01;58.73;97559.22;8306791;28;20614;-78
2021/01/27 18:24:51;;;;;;;9.20;8.27;;;;;;;5.05;58.60;97540.28;8306106;28;20212;-78
2021/01/27 18:28:57;;;;;;;9.77;8.20;;;;;;;4.79;59.55;97545.31;8306340;28;20201;-77
2021/01/27 18:32:59;;;;;;;10.07;8.93;;;;;;;4.80;59.55;97540.16;8305884;28;20224;-78
2021/01/27 18:37:01;;;;;;;9.20;8.30;;;;;;;4.95;59.70;97544.00;8306209;28;20311;-78
2021/01/27 18:41:04;;;;;;;9.63;8.20;;;;;;;4.95;59.80;97538.88;8306237;28;20221;-79
2021/01/27 18:45:09;;;;;;;10.80;9.13;;;;;;;4.76;60.24;97536.00;8306341;28;20213;-78
2021/01/27 18:49:10;;;;;;;12.67;9.90;;;;;;;4.74;60.51;97537.75;8302832;28;20217;-77
2021/01/27 18:53:14;;;;;;;9.57;8.60;;;;;;;4.61;60.92;97537.25;8304846;28;20217;-78
2021/01/27 18:57:16;;;;;;;9.53;8.63;;;;;;;4.60;61.06;97547.53;8303733;28;20221;-77
2021/01/27 19:01:18;;;;;;;10.10;9.00;;;;;;;4.77;60.87;97529.97;8308028;28;20191;-78
2021/01/27 19:05:21;;;;;;;10.70;9.60;;;;;;;4.75;60.58;97526.59;8305699;28;20316;-77
2021/01/27 19:09:23;;;;;;;9.57;8.67;;;;;;;4.67;61.15;97528.53;8305909;28;20697;-78
2021/01/27 19:13:27;;;;;;;10.33;9.33;;;;;;;4.60;61.31;97530.44;8304352;28;20193;-78
2021/01/27 19:17:29;;;;;;;11.43;10.30;;;;;;;4.66;60.91;97540.53;8299721;28;20244;-78
2021/01/27 19:21:31;;;;;;;12.10;10.90;;;;;;;4.76;60.92;97537.69;8304330;28;20200;-78
2021/01/27 19:25:38;;;;;;;12.27;11.07;;;;;;;4.74;61.55;97531.78;8303691;28;20249;-78